sensor_id;sensor_type;location;lat;lon;timestamp;P1;durP1;ratioP1;P2;durP2;ratioP2
26113;SDS011;13966;48.828;9.064;2024-02-26T00:00:38;5.82;;;4.22;;
26113;SDS011;13966;48.828;9.064;2024-02-26T00:03:04;7.70;;;4.40;;
26113;SDS011;13966;48.828;9.064;2024-02-26T00:05:30;6.10;;;4.05;;
26113;SDS011;13966;48.828;9.064;2024-02-26T00:07:56;5.57;;;4.30;;
26113;SDS011;13966;48.828;9.064;2024-02-26T00:10:22;9.13;;;4.68;;
26113;SDS011;13966;48.828;9.064;2024-02-26T00:12:49;7.68;;;4.95;;
26113;SDS011;13966;48.828;9.064;2024-02-26T00:15:15;8.25;;;5.03;;
26113;SDS011;13966;48.828;9.064;2024-02-26T00:17:41;7.85;;;4.85;;
26113;SDS011;13966;48.828;9.064;2024-02-26T00:20:07;9.18;;;4.57;;
26113;SDS011;13966;48.828;9.064;2024-02-26T00:22:33;6.45;;;4.28;;
26113;SDS011;13966;48.828;9.064;2024-02-26T00:25:00;7.50;;;4.97;;
26113;SDS011;13966;48.828;9.064;2024-02-26T00:27:26;8.15;;;4.28;;
26113;SDS011;13966;48.828;9.064;2024-02-26T00:29:52;6.50;;;3.97;;
26113;SDS011;13966;48.828;9.064;2024-02-26T00:32:18;6.45;;;4.03;;
26113;SDS011;13966;48.828;9.064;2024-02-26T00:34:44;6.53;;;4.20;;
26113;SDS011;13966;48.828;9.064;2024-02-26T00:37:10;5.75;;;4.13;;
26113;SDS011;13966;48.828;9.064;2024-02-26T00:39:36;7.35;;;4.32;;
26113;SDS011;13966;48.828;9.064;2024-02-26T00:42:02;5.25;;;3.60;;
26113;SDS011;13966;48.828;9.064;2024-02-26T00:44:28;6.40;;;4.20;;
26113;SDS011;13966;48.828;9.064;2024-02-26T00:46:54;5.82;;;3.53;;
26113;SDS011;13966;48.828;9.064;2024-02-26T00:49:20;5.95;;;4.15;;
26113;SDS011;13966;48.828;9.064;2024-02-26T00:51:46;7.07;;;4.63;;
26113;SDS011;13966;48.828;9.064;2024-02-26T00:54:12;7.20;;;4.25;;
26113;SDS011;13966;48.828;9.064;2024-02-26T00:56:38;6.57;;;4.32;;
26113;SDS011;13966;48.828;9.064;2024-02-26T00:59:04;8.88;;;3.85;;
26113;SDS011;13966;48.828;9.064;2024-02-26T01:01:31;9.38;;;4.10;;
26113;SDS011;13966;48.828;9.064;2024-02-26T01:03:57;5.97;;;4.30;;
26113;SDS011;13966;48.828;9.064;2024-02-26T01:06:23;5.85;;;3.80;;
26113;SDS011;13966;48.828;9.064;2024-02-26T01:08:49;5.40;;;3.80;;
26113;SDS011;13966;48.828;9.064;2024-02-26T01:11:15;5.32;;;3.92;;
26113;SDS011;13966;48.828;9.064;2024-02-26T01:13:41;6.30;;;3.65;;
26113;SDS011;13966;48.828;9.064;2024-02-26T01:16:07;6.05;;;4.13;;
26113;SDS011;13966;48.828;9.064;2024-02-26T01:18:33;5.18;;;3.70;;
26113;SDS011;13966;48.828;9.064;2024-02-26T01:20:59;7.10;;;3.95;;
26113;SDS011;13966;48.828;9.064;2024-02-26T01:23:25;6.93;;;3.53;;
26113;SDS011;13966;48.828;9.064;2024-02-26T01:25:51;7.75;;;3.88;;
26113;SDS011;13966;48.828;9.064;2024-02-26T01:28:17;4.40;;;3.53;;
26113;SDS011;13966;48.828;9.064;2024-02-26T01:30:43;4.72;;;3.13;;
26113;SDS011;13966;48.828;9.064;2024-02-26T01:33:09;5.03;;;3.38;;
26113;SDS011;13966;48.828;9.064;2024-02-26T01:35:35;6.07;;;3.33;;
26113;SDS011;13966;48.828;9.064;2024-02-26T01:38:01;6.22;;;3.60;;
26113;SDS011;13966;48.828;9.064;2024-02-26T01:40:27;5.25;;;3.33;;
26113;SDS011;13966;48.828;9.064;2024-02-26T01:42:54;4.15;;;3.42;;
26113;SDS011;13966;48.828;9.064;2024-02-26T01:45:20;5.15;;;3.40;;
26113;SDS011;13966;48.828;9.064;2024-02-26T01:47:50;4.70;;;3.30;;
26113;SDS011;13966;48.828;9.064;2024-02-26T01:50:16;4.93;;;3.53;;
26113;SDS011;13966;48.828;9.064;2024-02-26T01:52:43;5.43;;;3.25;;
26113;SDS011;13966;48.828;9.064;2024-02-26T01:55:09;4.78;;;3.50;;
26113;SDS011;13966;48.828;9.064;2024-02-26T01:57:35;5.43;;;3.40;;
26113;SDS011;13966;48.828;9.064;2024-02-26T02:00:01;5.65;;;3.42;;
26113;SDS011;13966;48.828;9.064;2024-02-26T02:02:30;5.82;;;3.50;;
26113;SDS011;13966;48.828;9.064;2024-02-26T02:04:57;4.05;;;3.35;;
26113;SDS011;13966;48.828;9.064;2024-02-26T02:07:23;5.70;;;3.45;;
26113;SDS011;13966;48.828;9.064;2024-02-26T02:09:50;6.05;;;3.80;;
26113;SDS011;13966;48.828;9.064;2024-02-26T02:12:16;4.65;;;3.40;;
26113;SDS011;13966;48.828;9.064;2024-02-26T02:14:42;5.15;;;3.53;;
26113;SDS011;13966;48.828;9.064;2024-02-26T02:17:08;5.40;;;3.35;;
26113;SDS011;13966;48.828;9.064;2024-02-26T02:19:34;5.13;;;3.63;;
26113;SDS011;13966;48.828;9.064;2024-02-26T02:22:00;5.68;;;3.20;;
26113;SDS011;13966;48.828;9.064;2024-02-26T02:24:26;4.05;;;2.80;;
26113;SDS011;13966;48.828;9.064;2024-02-26T02:26:52;5.20;;;3.15;;
26113;SDS011;13966;48.828;9.064;2024-02-26T02:29:18;5.47;;;3.17;;
26113;SDS011;13966;48.828;9.064;2024-02-26T02:31:44;4.28;;;3.28;;
26113;SDS011;13966;48.828;9.064;2024-02-26T02:34:10;5.03;;;3.05;;
26113;SDS011;13966;48.828;9.064;2024-02-26T02:36:48;7.47;;;3.00;;
26113;SDS011;13966;48.828;9.064;2024-02-26T02:39:15;5.22;;;3.42;;
26113;SDS011;13966;48.828;9.064;2024-02-26T02:41:41;5.78;;;3.30;;
26113;SDS011;13966;48.828;9.064;2024-02-26T02:44:07;5.13;;;3.25;;
26113;SDS011;13966;48.828;9.064;2024-02-26T02:46:33;7.35;;;3.65;;
26113;SDS011;13966;48.828;9.064;2024-02-26T02:49:00;5.20;;;3.50;;
26113;SDS011;13966;48.828;9.064;2024-02-26T02:51:26;5.70;;;3.90;;
26113;SDS011;13966;48.828;9.064;2024-02-26T02:53:52;7.78;;;3.58;;
26113;SDS011;13966;48.828;9.064;2024-02-26T02:56:18;5.15;;;3.08;;
26113;SDS011;13966;48.828;9.064;2024-02-26T02:58:44;3.85;;;3.00;;
26113;SDS011;13966;48.828;9.064;2024-02-26T03:01:10;8.23;;;3.20;;
26113;SDS011;13966;48.828;9.064;2024-02-26T03:03:38;7.45;;;3.80;;
26113;SDS011;13966;48.828;9.064;2024-02-26T03:06:04;6.07;;;3.38;;
26113;SDS011;13966;48.828;9.064;2024-02-26T03:08:30;7.18;;;3.30;;
26113;SDS011;13966;48.828;9.064;2024-02-26T03:10:58;4.40;;;3.13;;
26113;SDS011;13966;48.828;9.064;2024-02-26T03:13:24;4.43;;;2.88;;
26113;SDS011;13966;48.828;9.064;2024-02-26T03:15:50;4.97;;;3.35;;
26113;SDS011;13966;48.828;9.064;2024-02-26T03:18:16;4.20;;;2.78;;
26113;SDS011;13966;48.828;9.064;2024-02-26T03:20:42;4.25;;;2.92;;
26113;SDS011;13966;48.828;9.064;2024-02-26T03:23:08;6.22;;;3.08;;
26113;SDS011;13966;48.828;9.064;2024-02-26T03:25:37;4.50;;;3.03;;
26113;SDS011;13966;48.828;9.064;2024-02-26T03:28:03;7.43;;;3.08;;
26113;SDS011;13966;48.828;9.064;2024-02-26T03:30:30;6.20;;;2.97;;
26113;SDS011;13966;48.828;9.064;2024-02-26T03:32:56;5.15;;;3.80;;
26113;SDS011;13966;48.828;9.064;2024-02-26T03:35:22;5.28;;;3.53;;
26113;SDS011;13966;48.828;9.064;2024-02-26T03:37:48;5.60;;;3.08;;
26113;SDS011;13966;48.828;9.064;2024-02-26T03:40:16;4.35;;;3.15;;
26113;SDS011;13966;48.828;9.064;2024-02-26T03:42:44;3.75;;;2.67;;
26113;SDS011;13966;48.828;9.064;2024-02-26T03:45:10;5.53;;;2.95;;
26113;SDS011;13966;48.828;9.064;2024-02-26T03:47:37;4.05;;;2.97;;
26113;SDS011;13966;48.828;9.064;2024-02-26T03:50:05;5.75;;;2.88;;
26113;SDS011;13966;48.828;9.064;2024-02-26T03:52:31;4.45;;;2.80;;
26113;SDS011;13966;48.828;9.064;2024-02-26T03:54:57;5.15;;;2.85;;
26113;SDS011;13966;48.828;9.064;2024-02-26T03:57:23;6.80;;;3.30;;
26113;SDS011;13966;48.828;9.064;2024-02-26T03:59:49;5.57;;;3.15;;
26113;SDS011;13966;48.828;9.064;2024-02-26T04:02:15;5.47;;;3.17;;
26113;SDS011;13966;48.828;9.064;2024-02-26T04:04:41;4.70;;;3.25;;
26113;SDS011;13966;48.828;9.064;2024-02-26T04:07:07;5.40;;;2.92;;
26113;SDS011;13966;48.828;9.064;2024-02-26T04:09:33;4.43;;;3.05;;
26113;SDS011;13966;48.828;9.064;2024-02-26T04:12:00;4.20;;;3.17;;
26113;SDS011;13966;48.828;9.064;2024-02-26T04:14:26;7.93;;;3.67;;
26113;SDS011;13966;48.828;9.064;2024-02-26T04:16:52;4.15;;;2.90;;
26113;SDS011;13966;48.828;9.064;2024-02-26T04:19:19;4.82;;;2.92;;
26113;SDS011;13966;48.828;9.064;2024-02-26T04:21:45;5.32;;;2.50;;
26113;SDS011;13966;48.828;9.064;2024-02-26T04:24:11;3.05;;;2.15;;
26113;SDS011;13966;48.828;9.064;2024-02-26T04:26:37;4.85;;;2.60;;
26113;SDS011;13966;48.828;9.064;2024-02-26T04:29:04;2.88;;;2.13;;
26113;SDS011;13966;48.828;9.064;2024-02-26T04:31:29;4.20;;;2.50;;
26113;SDS011;13966;48.828;9.064;2024-02-26T04:33:57;3.17;;;2.13;;
26113;SDS011;13966;48.828;9.064;2024-02-26T04:36:23;4.47;;;2.53;;
26113;SDS011;13966;48.828;9.064;2024-02-26T04:38:51;3.88;;;2.30;;
26113;SDS011;13966;48.828;9.064;2024-02-26T04:41:19;3.42;;;2.40;;
26113;SDS011;13966;48.828;9.064;2024-02-26T04:43:45;3.38;;;2.30;;
26113;SDS011;13966;48.828;9.064;2024-02-26T04:46:11;4.20;;;2.10;;
26113;SDS011;13966;48.828;9.064;2024-02-26T04:48:37;3.88;;;2.40;;
26113;SDS011;13966;48.828;9.064;2024-02-26T04:51:04;2.28;;;1.85;;
26113;SDS011;13966;48.828;9.064;2024-02-26T04:53:30;5.25;;;2.42;;
26113;SDS011;13966;48.828;9.064;2024-02-26T04:55:56;3.97;;;2.05;;
26113;SDS011;13966;48.828;9.064;2024-02-26T04:58:22;4.30;;;2.10;;
26113;SDS011;13966;48.828;9.064;2024-02-26T05:00:48;3.60;;;2.35;;
26113;SDS011;13966;48.828;9.064;2024-02-26T05:03:14;4.07;;;3.00;;
26113;SDS011;13966;48.828;9.064;2024-02-26T05:05:43;4.80;;;2.63;;
26113;SDS011;13966;48.828;9.064;2024-02-26T05:08:09;3.55;;;2.63;;
26113;SDS011;13966;48.828;9.064;2024-02-26T05:10:36;7.57;;;4.65;;
26113;SDS011;13966;48.828;9.064;2024-02-26T05:13:05;4.35;;;3.03;;
26113;SDS011;13966;48.828;9.064;2024-02-26T05:15:31;4.15;;;2.70;;
26113;SDS011;13966;48.828;9.064;2024-02-26T05:17:57;2.47;;;2.22;;
26113;SDS011;13966;48.828;9.064;2024-02-26T05:20:23;3.95;;;2.42;;
26113;SDS011;13966;48.828;9.064;2024-02-26T05:22:49;3.95;;;2.60;;
26113;SDS011;13966;48.828;9.064;2024-02-26T05:25:15;4.10;;;2.60;;
26113;SDS011;13966;48.828;9.064;2024-02-26T05:27:42;3.47;;;2.53;;
26113;SDS011;13966;48.828;9.064;2024-02-26T05:30:09;3.90;;;2.33;;
26113;SDS011;13966;48.828;9.064;2024-02-26T05:32:35;3.10;;;2.25;;
26113;SDS011;13966;48.828;9.064;2024-02-26T05:35:01;3.08;;;2.45;;
26113;SDS011;13966;48.828;9.064;2024-02-26T05:37:28;3.35;;;2.30;;
26113;SDS011;13966;48.828;9.064;2024-02-26T05:39:54;3.47;;;2.10;;
26113;SDS011;13966;48.828;9.064;2024-02-26T05:42:20;5.57;;;2.70;;
26113;SDS011;13966;48.828;9.064;2024-02-26T05:44:46;3.03;;;1.90;;
26113;SDS011;13966;48.828;9.064;2024-02-26T05:47:13;6.03;;;1.90;;
26113;SDS011;13966;48.828;9.064;2024-02-26T05:49:39;3.33;;;1.60;;
26113;SDS011;13966;48.828;9.064;2024-02-26T05:52:05;3.00;;;1.95;;
26113;SDS011;13966;48.828;9.064;2024-02-26T05:54:31;2.88;;;1.90;;
26113;SDS011;13966;48.828;9.064;2024-02-26T05:56:57;4.55;;;2.25;;
26113;SDS011;13966;48.828;9.064;2024-02-26T05:59:23;2.85;;;2.25;;
26113;SDS011;13966;48.828;9.064;2024-02-26T06:01:49;3.00;;;1.98;;
26113;SDS011;13966;48.828;9.064;2024-02-26T06:04:18;3.85;;;2.22;;
26113;SDS011;13966;48.828;9.064;2024-02-26T06:06:44;4.68;;;2.03;;
26113;SDS011;13966;48.828;9.064;2024-02-26T06:09:10;3.70;;;2.63;;
26113;SDS011;13966;48.828;9.064;2024-02-26T06:11:36;3.92;;;2.38;;
26113;SDS011;13966;48.828;9.064;2024-02-26T06:14:03;4.97;;;2.85;;
26113;SDS011;13966;48.828;9.064;2024-02-26T06:16:29;4.25;;;3.10;;
26113;SDS011;13966;48.828;9.064;2024-02-26T06:18:55;5.15;;;3.38;;
26113;SDS011;13966;48.828;9.064;2024-02-26T06:21:21;5.00;;;2.90;;
26113;SDS011;13966;48.828;9.064;2024-02-26T06:23:47;5.43;;;2.53;;
26113;SDS011;13966;48.828;9.064;2024-02-26T06:26:14;5.03;;;2.78;;
26113;SDS011;13966;48.828;9.064;2024-02-26T06:28:40;5.63;;;2.83;;
26113;SDS011;13966;48.828;9.064;2024-02-26T06:31:06;4.30;;;2.75;;
26113;SDS011;13966;48.828;9.064;2024-02-26T06:33:32;5.38;;;3.03;;
26113;SDS011;13966;48.828;9.064;2024-02-26T06:35:58;4.70;;;3.03;;
26113;SDS011;13966;48.828;9.064;2024-02-26T06:38:24;6.07;;;3.75;;
26113;SDS011;13966;48.828;9.064;2024-02-26T06:40:50;4.70;;;2.28;;
26113;SDS011;13966;48.828;9.064;2024-02-26T06:43:16;5.65;;;2.33;;
26113;SDS011;13966;48.828;9.064;2024-02-26T06:45:42;4.75;;;2.83;;
26113;SDS011;13966;48.828;9.064;2024-02-26T06:48:08;4.05;;;2.83;;
26113;SDS011;13966;48.828;9.064;2024-02-26T06:50:34;5.90;;;2.55;;
26113;SDS011;13966;48.828;9.064;2024-02-26T06:53:00;4.40;;;2.58;;
26113;SDS011;13966;48.828;9.064;2024-02-26T06:55:26;6.32;;;2.85;;
26113;SDS011;13966;48.828;9.064;2024-02-26T06:57:52;4.65;;;3.20;;
26113;SDS011;13966;48.828;9.064;2024-02-26T07:00:19;4.28;;;2.90;;
26113;SDS011;13966;48.828;9.064;2024-02-26T07:02:45;4.72;;;2.70;;
26113;SDS011;13966;48.828;9.064;2024-02-26T07:05:11;4.40;;;2.60;;
26113;SDS011;13966;48.828;9.064;2024-02-26T07:07:37;7.35;;;3.10;;
26113;SDS011;13966;48.828;9.064;2024-02-26T07:10:03;5.97;;;2.75;;
26113;SDS011;13966;48.828;9.064;2024-02-26T07:12:30;4.55;;;2.70;;
26113;SDS011;13966;48.828;9.064;2024-02-26T07:14:56;3.55;;;2.20;;
26113;SDS011;13966;48.828;9.064;2024-02-26T07:17:23;6.70;;;2.45;;
26113;SDS011;13966;48.828;9.064;2024-02-26T07:19:49;6.40;;;2.78;;
26113;SDS011;13966;48.828;9.064;2024-02-26T07:22:15;4.30;;;2.75;;
26113;SDS011;13966;48.828;9.064;2024-02-26T07:24:41;5.70;;;2.70;;
26113;SDS011;13966;48.828;9.064;2024-02-26T07:27:07;4.15;;;2.40;;
26113;SDS011;13966;48.828;9.064;2024-02-26T07:29:33;4.10;;;2.28;;
26113;SDS011;13966;48.828;9.064;2024-02-26T07:31:59;6.50;;;2.90;;
26113;SDS011;13966;48.828;9.064;2024-02-26T07:34:25;4.00;;;2.67;;
26113;SDS011;13966;48.828;9.064;2024-02-26T07:36:54;3.42;;;2.60;;
26113;SDS011;13966;48.828;9.064;2024-02-26T07:39:20;4.88;;;2.67;;
26113;SDS011;13966;48.828;9.064;2024-02-26T07:41:46;4.10;;;2.75;;
26113;SDS011;13966;48.828;9.064;2024-02-26T07:44:14;4.75;;;3.20;;
26113;SDS011;13966;48.828;9.064;2024-02-26T07:46:41;5.25;;;2.80;;
26113;SDS011;13966;48.828;9.064;2024-02-26T07:49:07;4.60;;;2.78;;
26113;SDS011;13966;48.828;9.064;2024-02-26T07:51:33;4.78;;;3.20;;
26113;SDS011;13966;48.828;9.064;2024-02-26T07:53:59;4.47;;;2.85;;
26113;SDS011;13966;48.828;9.064;2024-02-26T07:56:26;5.10;;;3.05;;
26113;SDS011;13966;48.828;9.064;2024-02-26T07:58:52;6.65;;;3.00;;
26113;SDS011;13966;48.828;9.064;2024-02-26T08:01:18;5.57;;;2.67;;
26113;SDS011;13966;48.828;9.064;2024-02-26T08:03:44;6.13;;;3.00;;
26113;SDS011;13966;48.828;9.064;2024-02-26T08:06:10;5.63;;;2.95;;
26113;SDS011;13966;48.828;9.064;2024-02-26T08:08:36;5.43;;;2.47;;
26113;SDS011;13966;48.828;9.064;2024-02-26T08:11:02;6.90;;;2.40;;
26113;SDS011;13966;48.828;9.064;2024-02-26T08:13:28;5.70;;;2.33;;
26113;SDS011;13966;48.828;9.064;2024-02-26T08:15:54;6.13;;;2.53;;
26113;SDS011;13966;48.828;9.064;2024-02-26T08:18:20;5.47;;;3.03;;
26113;SDS011;13966;48.828;9.064;2024-02-26T08:20:46;6.00;;;2.78;;
26113;SDS011;13966;48.828;9.064;2024-02-26T08:23:14;6.35;;;2.45;;
26113;SDS011;13966;48.828;9.064;2024-02-26T08:25:40;5.80;;;2.65;;
26113;SDS011;13966;48.828;9.064;2024-02-26T08:28:06;7.30;;;3.00;;
26113;SDS011;13966;48.828;9.064;2024-02-26T08:30:32;4.68;;;2.55;;
26113;SDS011;13966;48.828;9.064;2024-02-26T08:32:59;8.00;;;3.17;;
26113;SDS011;13966;48.828;9.064;2024-02-26T08:35:25;3.95;;;3.00;;
26113;SDS011;13966;48.828;9.064;2024-02-26T08:37:51;4.78;;;3.05;;
26113;SDS011;13966;48.828;9.064;2024-02-26T08:40:17;3.38;;;2.70;;
26113;SDS011;13966;48.828;9.064;2024-02-26T08:42:44;3.92;;;2.80;;
26113;SDS011;13966;48.828;9.064;2024-02-26T08:45:10;6.63;;;3.08;;
26113;SDS011;13966;48.828;9.064;2024-02-26T08:47:37;5.32;;;3.33;;
26113;SDS011;13966;48.828;9.064;2024-02-26T08:50:04;7.78;;;3.47;;
26113;SDS011;13966;48.828;9.064;2024-02-26T08:52:31;9.02;;;3.60;;
26113;SDS011;13966;48.828;9.064;2024-02-26T08:54:58;9.95;;;4.00;;
26113;SDS011;13966;48.828;9.064;2024-02-26T08:57:24;5.80;;;3.60;;
26113;SDS011;13966;48.828;9.064;2024-02-26T08:59:52;10.55;;;4.70;;
26113;SDS011;13966;48.828;9.064;2024-02-26T09:02:18;9.32;;;4.38;;
26113;SDS011;13966;48.828;9.064;2024-02-26T09:04:45;11.27;;;4.25;;
26113;SDS011;13966;48.828;9.064;2024-02-26T09:07:11;9.02;;;4.38;;
26113;SDS011;13966;48.828;9.064;2024-02-26T09:09:37;6.95;;;3.75;;
26113;SDS011;13966;48.828;9.064;2024-02-26T09:12:03;7.75;;;3.60;;
26113;SDS011;13966;48.828;9.064;2024-02-26T09:14:29;10.68;;;4.18;;
26113;SDS011;13966;48.828;9.064;2024-02-26T09:16:55;13.82;;;4.10;;
26113;SDS011;13966;48.828;9.064;2024-02-26T09:19:21;6.80;;;3.65;;
26113;SDS011;13966;48.828;9.064;2024-02-26T09:21:47;6.57;;;3.70;;
26113;SDS011;13966;48.828;9.064;2024-02-26T09:24:13;5.63;;;3.75;;
26113;SDS011;13966;48.828;9.064;2024-02-26T09:26:39;10.52;;;4.32;;
26113;SDS011;13966;48.828;9.064;2024-02-26T09:29:05;9.13;;;4.10;;
26113;SDS011;13966;48.828;9.064;2024-02-26T09:31:33;6.57;;;3.88;;
26113;SDS011;13966;48.828;9.064;2024-02-26T09:33:59;8.27;;;3.70;;
26113;SDS011;13966;48.828;9.064;2024-02-26T09:36:25;10.85;;;3.47;;
26113;SDS011;13966;48.828;9.064;2024-02-26T09:38:51;8.55;;;3.83;;
26113;SDS011;13966;48.828;9.064;2024-02-26T09:41:17;5.38;;;3.67;;
26113;SDS011;13966;48.828;9.064;2024-02-26T09:43:44;9.30;;;4.07;;
26113;SDS011;13966;48.828;9.064;2024-02-26T09:46:13;5.75;;;3.67;;
26113;SDS011;13966;48.828;9.064;2024-02-26T09:48:40;6.47;;;3.25;;
26113;SDS011;13966;48.828;9.064;2024-02-26T09:51:08;6.57;;;3.35;;
26113;SDS011;13966;48.828;9.064;2024-02-26T09:53:37;5.70;;;3.60;;
26113;SDS011;13966;48.828;9.064;2024-02-26T09:56:07;5.93;;;3.53;;
26113;SDS011;13966;48.828;9.064;2024-02-26T09:58:33;5.30;;;2.60;;
26113;SDS011;13966;48.828;9.064;2024-02-26T10:01:00;8.05;;;3.30;;
26113;SDS011;13966;48.828;9.064;2024-02-26T10:03:31;7.88;;;2.90;;
26113;SDS011;13966;48.828;9.064;2024-02-26T10:05:57;9.55;;;3.60;;
26113;SDS011;13966;48.828;9.064;2024-02-26T10:08:24;4.32;;;3.10;;
26113;SDS011;13966;48.828;9.064;2024-02-26T10:10:50;6.75;;;3.50;;
26113;SDS011;13966;48.828;9.064;2024-02-26T10:13:16;5.22;;;2.85;;
26113;SDS011;13966;48.828;9.064;2024-02-26T10:15:42;6.10;;;3.25;;
26113;SDS011;13966;48.828;9.064;2024-02-26T10:18:08;8.30;;;3.80;;
26113;SDS011;13966;48.828;9.064;2024-02-26T10:20:34;8.40;;;3.30;;
26113;SDS011;13966;48.828;9.064;2024-02-26T10:23:03;6.22;;;3.13;;
26113;SDS011;13966;48.828;9.064;2024-02-26T10:25:30;5.30;;;2.70;;
26113;SDS011;13966;48.828;9.064;2024-02-26T10:27:59;10.52;;;4.00;;
26113;SDS011;13966;48.828;9.064;2024-02-26T10:30:27;4.45;;;2.95;;
26113;SDS011;13966;48.828;9.064;2024-02-26T10:32:53;7.85;;;3.72;;
26113;SDS011;13966;48.828;9.064;2024-02-26T10:35:20;5.53;;;2.78;;
26113;SDS011;13966;48.828;9.064;2024-02-26T10:37:46;5.70;;;2.85;;
26113;SDS011;13966;48.828;9.064;2024-02-26T10:40:15;5.47;;;3.05;;
26113;SDS011;13966;48.828;9.064;2024-02-26T10:42:41;7.72;;;3.03;;
26113;SDS011;13966;48.828;9.064;2024-02-26T10:45:08;3.97;;;2.70;;
26113;SDS011;13966;48.828;9.064;2024-02-26T10:47:38;4.55;;;2.45;;
26113;SDS011;13966;48.828;9.064;2024-02-26T10:50:07;7.78;;;2.45;;
26113;SDS011;13966;48.828;9.064;2024-02-26T10:52:34;7.40;;;3.35;;
26113;SDS011;13966;48.828;9.064;2024-02-26T10:55:04;10.43;;;3.75;;
26113;SDS011;13966;48.828;9.064;2024-02-26T10:57:33;12.80;;;3.25;;
26113;SDS011;13966;48.828;9.064;2024-02-26T11:00:00;5.28;;;2.80;;
26113;SDS011;13966;48.828;9.064;2024-02-26T11:02:28;6.95;;;2.30;;
26113;SDS011;13966;48.828;9.064;2024-02-26T11:04:55;3.70;;;1.88;;
26113;SDS011;13966;48.828;9.064;2024-02-26T11:07:22;4.65;;;1.90;;
26113;SDS011;13966;48.828;9.064;2024-02-26T11:09:48;3.88;;;2.00;;
26113;SDS011;13966;48.828;9.064;2024-02-26T11:12:17;4.38;;;1.95;;
26113;SDS011;13966;48.828;9.064;2024-02-26T11:14:44;13.98;;;2.13;;
26113;SDS011;13966;48.828;9.064;2024-02-26T11:17:11;3.63;;;1.90;;
26113;SDS011;13966;48.828;9.064;2024-02-26T11:19:38;2.60;;;1.70;;
26113;SDS011;13966;48.828;9.064;2024-02-26T11:22:05;3.95;;;1.80;;
26113;SDS011;13966;48.828;9.064;2024-02-26T11:24:31;3.08;;;1.73;;
26113;SDS011;13966;48.828;9.064;2024-02-26T11:26:58;5.10;;;1.90;;
26113;SDS011;13966;48.828;9.064;2024-02-26T11:29:28;5.80;;;1.65;;
26113;SDS011;13966;48.828;9.064;2024-02-26T11:31:55;3.42;;;1.92;;
26113;SDS011;13966;48.828;9.064;2024-02-26T11:34:21;3.20;;;1.88;;
26113;SDS011;13966;48.828;9.064;2024-02-26T11:36:48;2.53;;;1.77;;
26113;SDS011;13966;48.828;9.064;2024-02-26T11:39:14;5.38;;;1.70;;
26113;SDS011;13966;48.828;9.064;2024-02-26T11:41:42;3.22;;;1.80;;
26113;SDS011;13966;48.828;9.064;2024-02-26T11:44:08;4.25;;;1.90;;
26113;SDS011;13966;48.828;9.064;2024-02-26T11:46:40;4.07;;;2.00;;
26113;SDS011;13966;48.828;9.064;2024-02-26T11:51:56;2.70;;;1.80;;
26113;SDS011;13966;48.828;9.064;2024-02-26T11:54:44;3.17;;;1.52;;
26113;SDS011;13966;48.828;9.064;2024-02-26T11:57:23;3.50;;;1.50;;
26113;SDS011;13966;48.828;9.064;2024-02-26T11:59:50;1.27;;;1.02;;
26113;SDS011;13966;48.828;9.064;2024-02-26T12:05:01;2.50;;;1.10;;
26113;SDS011;13966;48.828;9.064;2024-02-26T12:07:27;3.17;;;1.30;;
26113;SDS011;13966;48.828;9.064;2024-02-26T12:09:56;1.30;;;0.80;;
26113;SDS011;13966;48.828;9.064;2024-02-26T12:12:38;3.30;;;1.40;;
26113;SDS011;13966;48.828;9.064;2024-02-26T12:15:05;2.33;;;1.10;;
26113;SDS011;13966;48.828;9.064;2024-02-26T12:17:31;2.95;;;1.30;;
26113;SDS011;13966;48.828;9.064;2024-02-26T12:20:07;1.83;;;1.10;;
26113;SDS011;13966;48.828;9.064;2024-02-26T12:22:34;3.63;;;1.20;;
26113;SDS011;13966;48.828;9.064;2024-02-26T12:25:02;4.25;;;1.10;;
26113;SDS011;13966;48.828;9.064;2024-02-26T12:27:28;2.03;;;1.00;;
26113;SDS011;13966;48.828;9.064;2024-02-26T12:29:54;2.20;;;1.20;;
26113;SDS011;13966;48.828;9.064;2024-02-26T12:32:20;1.30;;;1.05;;
26113;SDS011;13966;48.828;9.064;2024-02-26T12:34:46;1.45;;;1.20;;
26113;SDS011;13966;48.828;9.064;2024-02-26T12:37:12;1.38;;;0.90;;
26113;SDS011;13966;48.828;9.064;2024-02-26T12:39:38;1.52;;;0.80;;
26113;SDS011;13966;48.828;9.064;2024-02-26T12:42:04;1.73;;;1.15;;
26113;SDS011;13966;48.828;9.064;2024-02-26T12:44:31;2.20;;;1.23;;
26113;SDS011;13966;48.828;9.064;2024-02-26T12:47:03;1.88;;;1.35;;
26113;SDS011;13966;48.828;9.064;2024-02-26T12:49:29;1.92;;;1.20;;
26113;SDS011;13966;48.828;9.064;2024-02-26T12:51:55;3.28;;;1.50;;
26113;SDS011;13966;48.828;9.064;2024-02-26T12:54:27;3.13;;;1.60;;
26113;SDS011;13966;48.828;9.064;2024-02-26T12:56:54;2.15;;;1.40;;
26113;SDS011;13966;48.828;9.064;2024-02-26T12:59:20;3.45;;;1.20;;
26113;SDS011;13966;48.828;9.064;2024-02-26T13:01:46;4.03;;;1.27;;
26113;SDS011;13966;48.828;9.064;2024-02-26T13:04:12;2.70;;;1.50;;
26113;SDS011;13966;48.828;9.064;2024-02-26T13:06:38;3.28;;;1.10;;
26113;SDS011;13966;48.828;9.064;2024-02-26T13:09:04;1.88;;;1.38;;
26113;SDS011;13966;48.828;9.064;2024-02-26T13:11:31;2.10;;;0.90;;
26113;SDS011;13966;48.828;9.064;2024-02-26T13:13:58;6.18;;;1.10;;
26113;SDS011;13966;48.828;9.064;2024-02-26T13:16:24;1.77;;;1.17;;
26113;SDS011;13966;48.828;9.064;2024-02-26T13:18:50;4.22;;;1.30;;
26113;SDS011;13966;48.828;9.064;2024-02-26T13:21:18;6.85;;;1.35;;
26113;SDS011;13966;48.828;9.064;2024-02-26T13:23:48;2.65;;;1.10;;
26113;SDS011;13966;48.828;9.064;2024-02-26T13:26:15;1.77;;;0.90;;
26113;SDS011;13966;48.828;9.064;2024-02-26T13:28:41;3.47;;;0.90;;
26113;SDS011;13966;48.828;9.064;2024-02-26T13:31:07;3.20;;;1.05;;
26113;SDS011;13966;48.828;9.064;2024-02-26T13:33:34;4.40;;;1.02;;
26113;SDS011;13966;48.828;9.064;2024-02-26T13:36:00;1.48;;;0.70;;
26113;SDS011;13966;48.828;9.064;2024-02-26T13:38:27;1.85;;;0.80;;
26113;SDS011;13966;48.828;9.064;2024-02-26T13:40:56;2.35;;;0.70;;
26113;SDS011;13966;48.828;9.064;2024-02-26T13:43:22;0.70;;;0.68;;
26113;SDS011;13966;48.828;9.064;2024-02-26T13:45:48;1.42;;;0.98;;
26113;SDS011;13966;48.828;9.064;2024-02-26T13:48:14;3.33;;;0.60;;
26113;SDS011;13966;48.828;9.064;2024-02-26T13:50:40;1.63;;;0.50;;
26113;SDS011;13966;48.828;9.064;2024-02-26T13:53:08;4.65;;;0.77;;
26113;SDS011;13966;48.828;9.064;2024-02-26T13:55:34;0.60;;;0.50;;
26113;SDS011;13966;48.828;9.064;2024-02-26T13:58:01;1.85;;;0.50;;
26113;SDS011;13966;48.828;9.064;2024-02-26T14:00:27;1.10;;;0.70;;
26113;SDS011;13966;48.828;9.064;2024-02-26T14:02:56;1.20;;;0.82;;
26113;SDS011;13966;48.828;9.064;2024-02-26T14:05:22;0.90;;;0.60;;
26113;SDS011;13966;48.828;9.064;2024-02-26T14:07:48;0.80;;;0.80;;
26113;SDS011;13966;48.828;9.064;2024-02-26T14:10:14;2.90;;;0.90;;
26113;SDS011;13966;48.828;9.064;2024-02-26T14:12:41;1.55;;;0.60;;
26113;SDS011;13966;48.828;9.064;2024-02-26T14:15:07;1.50;;;0.68;;
26113;SDS011;13966;48.828;9.064;2024-02-26T14:17:33;3.55;;;0.73;;
26113;SDS011;13966;48.828;9.064;2024-02-26T14:19:59;2.03;;;0.63;;
26113;SDS011;13966;48.828;9.064;2024-02-26T14:22:25;0.80;;;0.30;;
26113;SDS011;13966;48.828;9.064;2024-02-26T14:24:52;1.98;;;0.60;;
26113;SDS011;13966;48.828;9.064;2024-02-26T14:27:18;1.10;;;0.50;;
26113;SDS011;13966;48.828;9.064;2024-02-26T14:29:47;0.90;;;0.40;;
26113;SDS011;13966;48.828;9.064;2024-02-26T14:32:13;2.05;;;0.60;;
26113;SDS011;13966;48.828;9.064;2024-02-26T14:34:39;0.43;;;0.32;;
26113;SDS011;13966;48.828;9.064;2024-02-26T14:37:05;1.08;;;0.47;;
26113;SDS011;13966;48.828;9.064;2024-02-26T14:39:31;1.02;;;0.57;;
26113;SDS011;13966;48.828;9.064;2024-02-26T14:41:57;0.82;;;0.38;;
26113;SDS011;13966;48.828;9.064;2024-02-26T14:44:23;1.05;;;0.50;;
26113;SDS011;13966;48.828;9.064;2024-02-26T14:46:50;0.52;;;0.25;;
26113;SDS011;13966;48.828;9.064;2024-02-26T14:49:16;0.90;;;0.30;;